sensor_id;sensor_type;location;lat;lon;timestamp;temperature;humidity
78516;SHT31;67815;51.990;5.688;2023-03-24T00:01:35;14.4;74.2
78516;SHT31;67815;51.990;5.688;2023-03-24T00:04:05;14.4;74.6
78516;SHT31;67815;51.990;5.688;2023-03-24T00:06:35;14.4;74.6
78516;SHT31;67815;51.990;5.688;2023-03-24T00:09:15;14.4;74.6
78516;SHT31;67815;51.990;5.688;2023-03-24T00:11:47;14.4;74.6
78516;SHT31;67815;51.990;5.688;2023-03-24T00:14:18;14.4;74.7
78516;SHT31;67815;51.990;5.688;2023-03-24T00:16:49;14.4;74.7
78516;SHT31;67815;51.990;5.688;2023-03-24T00:22:41;14.4;74.9
78516;SHT31;67815;51.990;5.688;2023-03-24T00:25:19;14.4;75.0
78516;SHT31;67815;51.990;5.688;2023-03-24T00:27:50;14.4;74.9
78516;SHT31;67815;51.990;5.688;2023-03-24T00:30:20;14.4;74.8
78516;SHT31;67815;51.990;5.688;2023-03-24T00:32:52;14.4;75.1
78516;SHT31;67815;51.990;5.688;2023-03-24T00:35:22;14.4;75.2
78516;SHT31;67815;51.990;5.688;2023-03-24T00:37:52;14.4;75.4
78516;SHT31;67815;51.990;5.688;2023-03-24T00:40:22;14.4;75.4
78516;SHT31;67815;51.990;5.688;2023-03-24T00:42:51;14.4;75.5
78516;SHT31;67815;51.990;5.688;2023-03-24T00:48:42;14.4;75.6
78516;SHT31;67815;51.990;5.688;2023-03-24T00:51:12;14.4;75.4
78516;SHT31;67815;51.990;5.688;2023-03-24T00:53:42;14.4;75.4
78516;SHT31;67815;51.990;5.688;2023-03-24T00:56:15;14.4;75.7
78516;SHT31;67815;51.990;5.688;2023-03-24T00:58:44;14.4;75.5
78516;SHT31;67815;51.990;5.688;2023-03-24T01:01:14;14.4;75.5
78516;SHT31;67815;51.990;5.688;2023-03-24T01:03:43;14.4;75.5
78516;SHT31;67815;51.990;5.688;2023-03-24T01:06:14;14.4;75.7
78516;SHT31;67815;51.990;5.688;2023-03-24T01:08:45;14.4;75.9
78516;SHT31;67815;51.990;5.688;2023-03-24T01:11:15;14.4;75.9
78516;SHT31;67815;51.990;5.688;2023-03-24T01:13:45;14.4;75.8
78516;SHT31;67815;51.990;5.688;2023-03-24T01:16:15;14.4;75.9
78516;SHT31;67815;51.990;5.688;2023-03-24T01:18:45;14.4;75.8
78516;SHT31;67815;51.990;5.688;2023-03-24T01:21:16;14.4;75.8
78516;SHT31;67815;51.990;5.688;2023-03-24T01:23:45;14.4;76.0
78516;SHT31;67815;51.990;5.688;2023-03-24T01:26:16;14.4;75.6
78516;SHT31;67815;51.990;5.688;2023-03-24T01:28:46;14.4;75.8
78516;SHT31;67815;51.990;5.688;2023-03-24T01:31:15;14.4;75.8
78516;SHT31;67815;51.990;5.688;2023-03-24T01:33:45;14.4;75.8
78516;SHT31;67815;51.990;5.688;2023-03-24T01:39:35;14.4;75.9
78516;SHT31;67815;51.990;5.688;2023-03-24T01:42:08;14.4;75.9
78516;SHT31;67815;51.990;5.688;2023-03-24T01:44:40;14.4;76.0
78516;SHT31;67815;51.990;5.688;2023-03-24T01:47:09;14.5;75.9
78516;SHT31;67815;51.990;5.688;2023-03-24T01:49:44;14.5;75.8
78516;SHT31;67815;51.990;5.688;2023-03-24T01:52:20;14.5;76.3
78516;SHT31;67815;51.990;5.688;2023-03-24T01:54:53;14.5;76.4
78516;SHT31;67815;51.990;5.688;2023-03-24T01:57:26;14.5;76.4
78516;SHT31;67815;51.990;5.688;2023-03-24T02:00:18;14.5;76.6
78516;SHT31;67815;51.990;5.688;2023-03-24T02:02:53;14.5;76.6
78516;SHT31;67815;51.990;5.688;2023-03-24T02:08:46;14.5;76.6
78516;SHT31;67815;51.990;5.688;2023-03-24T02:11:17;14.5;76.4
78516;SHT31;67815;51.990;5.688;2023-03-24T02:13:47;14.5;76.6
78516;SHT31;67815;51.990;5.688;2023-03-24T02:16:31;14.5;76.2
78516;SHT31;67815;51.990;5.688;2023-03-24T02:20:03;14.5;76.0
78516;SHT31;67815;51.990;5.688;2023-03-24T02:23:04;14.5;76.6
78516;SHT31;67815;51.990;5.688;2023-03-24T02:26:46;14.6;76.6
78516;SHT31;67815;51.990;5.688;2023-03-24T02:29:53;14.6;76.4
78516;SHT31;67815;51.990;5.688;2023-03-24T02:33:38;14.6;76.6
78516;SHT31;67815;51.990;5.688;2023-03-24T02:36:36;14.6;76.4
78516;SHT31;67815;51.990;5.688;2023-03-24T02:39:51;14.6;76.5
78516;SHT31;67815;51.990;5.688;2023-03-24T02:42:32;14.6;76.5
78516;SHT31;67815;51.990;5.688;2023-03-24T02:45:18;14.6;76.5
78516;SHT31;67815;51.990;5.688;2023-03-24T02:48:04;14.6;76.6
78516;SHT31;67815;51.990;5.688;2023-03-24T02:50:40;14.6;76.5
78516;SHT31;67815;51.990;5.688;2023-03-24T02:53:16;14.6;76.8
78516;SHT31;67815;51.990;5.688;2023-03-24T02:55:53;14.6;76.8
78516;SHT31;67815;51.990;5.688;2023-03-24T03:01:50;14.6;74.7
78516;SHT31;67815;51.990;5.688;2023-03-24T03:04:29;14.6;72.4
78516;SHT31;67815;51.990;5.688;2023-03-24T03:07:03;14.5;72.4
78516;SHT31;67815;51.990;5.688;2023-03-24T03:09:40;14.5;72.4
78516;SHT31;67815;51.990;5.688;2023-03-24T03:12:13;14.4;71.4
78516;SHT31;67815;51.990;5.688;2023-03-24T03:14:47;14.4;72.0
78516;SHT31;67815;51.990;5.688;2023-03-24T03:17:20;14.4;71.7
78516;SHT31;67815;51.990;5.688;2023-03-24T03:19:56;14.3;71.8
78516;SHT31;67815;51.990;5.688;2023-03-24T03:22:35;14.3;71.1
78516;SHT31;67815;51.990;5.688;2023-03-24T03:25:12;14.3;71.1
78516;SHT31;67815;51.990;5.688;2023-03-24T03:27:45;14.2;71.4
78516;SHT31;67815;51.990;5.688;2023-03-24T03:30:24;14.2;71.3
78516;SHT31;67815;51.990;5.688;2023-03-24T03:33:03;14.2;71.1
78516;SHT31;67815;51.990;5.688;2023-03-24T03:35:37;14.1;69.5
78516;SHT31;67815;51.990;5.688;2023-03-24T03:38:19;14.1;69.4
78516;SHT31;67815;51.990;5.688;2023-03-24T03:41:15;14.1;69.4
78516;SHT31;67815;51.990;5.688;2023-03-24T03:43:48;14.0;69.0
78516;SHT31;67815;51.990;5.688;2023-03-24T03:46:18;14.0;68.4
78516;SHT31;67815;51.990;5.688;2023-03-24T03:48:48;14.0;68.7
78516;SHT31;67815;51.990;5.688;2023-03-24T03:51:18;13.9;68.6
78516;SHT31;67815;51.990;5.688;2023-03-24T03:53:51;13.9;68.1
78516;SHT31;67815;51.990;5.688;2023-03-24T03:56:25;13.8;67.7
78516;SHT31;67815;51.990;5.688;2023-03-24T03:59:24;13.8;67.9
78516;SHT31;67815;51.990;5.688;2023-03-24T04:01:56;13.7;68.3
78516;SHT31;67815;51.990;5.688;2023-03-24T04:04:50;13.7;69.4
78516;SHT31;67815;51.990;5.688;2023-03-24T04:07:30;13.6;67.9
78516;SHT31;67815;51.990;5.688;2023-03-24T04:10:12;13.6;68.2
78516;SHT31;67815;51.990;5.688;2023-03-24T04:13:04;13.5;68.3
78516;SHT31;67815;51.990;5.688;2023-03-24T04:15:47;13.5;68.3
78516;SHT31;67815;51.990;5.688;2023-03-24T04:18:27;13.5;68.9
78516;SHT31;67815;51.990;5.688;2023-03-24T04:21:05;13.4;69.5
78516;SHT31;67815;51.990;5.688;2023-03-24T04:23:46;13.4;69.7
78516;SHT31;67815;51.990;5.688;2023-03-24T04:29:47;13.4;69.4
78516;SHT31;67815;51.990;5.688;2023-03-24T04:35:48;13.3;69.1
78516;SHT31;67815;51.990;5.688;2023-03-24T04:38:24;13.3;69.5
78516;SHT31;67815;51.990;5.688;2023-03-24T04:41:20;13.3;68.9
78516;SHT31;67815;51.990;5.688;2023-03-24T04:43:55;13.3;69.6
78516;SHT31;67815;51.990;5.688;2023-03-24T04:46:25;13.3;69.8
78516;SHT31;67815;51.990;5.688;2023-03-24T04:49:13;13.3;69.7
78516;SHT31;67815;51.990;5.688;2023-03-24T04:51:44;13.3;69.0
78516;SHT31;67815;51.990;5.688;2023-03-24T04:54:14;13.3;69.7
78516;SHT31;67815;51.990;5.688;2023-03-24T04:56:46;13.3;68.1
78516;SHT31;67815;51.990;5.688;2023-03-24T04:59:17;13.2;68.4
78516;SHT31;67815;51.990;5.688;2023-03-24T05:01:47;13.2;68.1
78516;SHT31;67815;51.990;5.688;2023-03-24T05:04:19;13.2;67.3
78516;SHT31;67815;51.990;5.688;2023-03-24T05:06:49;13.2;66.9
78516;SHT31;67815;51.990;5.688;2023-03-24T05:09:24;13.1;66.9
78516;SHT31;67815;51.990;5.688;2023-03-24T05:11:53;13.1;67.0
78516;SHT31;67815;51.990;5.688;2023-03-24T05:14:23;13.1;67.1
78516;SHT31;67815;51.990;5.688;2023-03-24T05:16:53;13.0;68.2
78516;SHT31;67815;51.990;5.688;2023-03-24T05:19:22;13.0;67.6
78516;SHT31;67815;51.990;5.688;2023-03-24T05:21:52;13.0;67.4
78516;SHT31;67815;51.990;5.688;2023-03-24T05:24:22;12.9;67.4
78516;SHT31;67815;51.990;5.688;2023-03-24T05:26:53;12.9;67.6
78516;SHT31;67815;51.990;5.688;2023-03-24T05:32:43;12.9;66.7
78516;SHT31;67815;51.990;5.688;2023-03-24T05:35:14;12.9;67.2
78516;SHT31;67815;51.990;5.688;2023-03-24T05:37:44;12.8;67.6
78516;SHT31;67815;51.990;5.688;2023-03-24T05:40:14;12.8;67.7
78516;SHT31;67815;51.990;5.688;2023-03-24T05:42:44;12.8;67.6
78516;SHT31;67815;51.990;5.688;2023-03-24T05:45:14;12.8;68.5
78516;SHT31;67815;51.990;5.688;2023-03-24T05:47:45;12.8;68.7
78516;SHT31;67815;51.990;5.688;2023-03-24T05:50:16;12.7;68.4
78516;SHT31;67815;51.990;5.688;2023-03-24T05:52:46;12.7;68.6
78516;SHT31;67815;51.990;5.688;2023-03-24T05:55:18;12.7;68.4
78516;SHT31;67815;51.990;5.688;2023-03-24T05:57:48;12.7;69.0
78516;SHT31;67815;51.990;5.688;2023-03-24T06:00:19;12.7;68.8
78516;SHT31;67815;51.990;5.688;2023-03-24T06:02:51;12.7;68.3
78516;SHT31;67815;51.990;5.688;2023-03-24T06:05:21;12.7;68.9
78516;SHT31;67815;51.990;5.688;2023-03-24T06:07:53;12.7;68.4
78516;SHT31;67815;51.990;5.688;2023-03-24T06:10:25;12.7;69.0
78516;SHT31;67815;51.990;5.688;2023-03-24T06:12:56;12.7;68.8
78516;SHT31;67815;51.990;5.688;2023-03-24T06:15:27;12.7;68.8
78516;SHT31;67815;51.990;5.688;2023-03-24T06:17:59;12.7;69.5
78516;SHT31;67815;51.990;5.688;2023-03-24T06:20:30;12.8;69.8
78516;SHT31;67815;51.990;5.688;2023-03-24T06:23:00;12.8;68.9
78516;SHT31;67815;51.990;5.688;2023-03-24T06:25:30;12.8;69.6
78516;SHT31;67815;51.990;5.688;2023-03-24T06:27:59;12.8;69.6
78516;SHT31;67815;51.990;5.688;2023-03-24T06:30:32;12.8;69.8
78516;SHT31;67815;51.990;5.688;2023-03-24T06:33:15;12.8;69.3
78516;SHT31;67815;51.990;5.688;2023-03-24T06:35:45;12.8;69.8
78516;SHT31;67815;51.990;5.688;2023-03-24T06:38:17;12.9;68.3
78516;SHT31;67815;51.990;5.688;2023-03-24T06:40:46;12.9;68.1
78516;SHT31;67815;51.990;5.688;2023-03-24T06:43:16;12.9;69.1
78516;SHT31;67815;51.990;5.688;2023-03-24T06:45:46;12.9;69.5
78516;SHT31;67815;51.990;5.688;2023-03-24T06:48:16;12.9;68.6
78516;SHT31;67815;51.990;5.688;2023-03-24T06:50:46;13.0;68.8
78516;SHT31;67815;51.990;5.688;2023-03-24T06:53:15;13.0;69.1
78516;SHT31;67815;51.990;5.688;2023-03-24T06:55:46;13.0;68.7
78516;SHT31;67815;51.990;5.688;2023-03-24T06:58:16;13.0;68.1
78516;SHT31;67815;51.990;5.688;2023-03-24T07:00:46;13.0;68.1
78516;SHT31;67815;51.990;5.688;2023-03-24T07:03:16;13.0;67.5
78516;SHT31;67815;51.990;5.688;2023-03-24T07:05:49;13.0;68.3
78516;SHT31;67815;51.990;5.688;2023-03-24T07:08:19;13.0;66.4
78516;SHT31;67815;51.990;5.688;2023-03-24T07:10:51;13.1;67.3
78516;SHT31;67815;51.990;5.688;2023-03-24T07:13:21;13.1;67.8
78516;SHT31;67815;51.990;5.688;2023-03-24T07:15:50;13.1;67.1
78516;SHT31;67815;51.990;5.688;2023-03-24T07:18:20;13.1;66.4
78516;SHT31;67815;51.990;5.688;2023-03-24T07:20:50;13.1;66.7
78516;SHT31;67815;51.990;5.688;2023-03-24T07:23:20;13.1;66.7
78516;SHT31;67815;51.990;5.688;2023-03-24T07:25:51;13.1;68.3
78516;SHT31;67815;51.990;5.688;2023-03-24T07:28:21;13.2;68.0
78516;SHT31;67815;51.990;5.688;2023-03-24T07:30:51;13.2;67.5
78516;SHT31;67815;51.990;5.688;2023-03-24T07:33:20;13.2;67.5
78516;SHT31;67815;51.990;5.688;2023-03-24T07:35:55;13.3;66.4
78516;SHT31;67815;51.990;5.688;2023-03-24T07:38:25;13.3;67.5
78516;SHT31;67815;51.990;5.688;2023-03-24T07:40:56;13.3;66.6
78516;SHT31;67815;51.990;5.688;2023-03-24T07:46:48;13.4;65.9
78516;SHT31;67815;51.990;5.688;2023-03-24T07:49:17;13.4;66.4
78516;SHT31;67815;51.990;5.688;2023-03-24T07:51:47;13.4;66.1
78516;SHT31;67815;51.990;5.688;2023-03-24T07:54:17;13.4;66.9
78516;SHT31;67815;51.990;5.688;2023-03-24T07:56:47;13.4;66.0
78516;SHT31;67815;51.990;5.688;2023-03-24T08:02:38;13.5;65.4
78516;SHT31;67815;51.990;5.688;2023-03-24T08:05:11;13.5;66.7
78516;SHT31;67815;51.990;5.688;2023-03-24T08:07:42;13.5;66.8
78516;SHT31;67815;51.990;5.688;2023-03-24T08:10:18;13.6;66.7
78516;SHT31;67815;51.990;5.688;2023-03-24T08:12:50;13.6;65.9
78516;SHT31;67815;51.990;5.688;2023-03-24T08:15:21;13.6;65.9
78516;SHT31;67815;51.990;5.688;2023-03-24T08:17:52;13.7;65.2
78516;SHT31;67815;51.990;5.688;2023-03-24T08:20:24;13.7;64.4
78516;SHT31;67815;51.990;5.688;2023-03-24T08:22:56;13.7;64.0
78516;SHT31;67815;51.990;5.688;2023-03-24T08:25:27;13.7;64.9
78516;SHT31;67815;51.990;5.688;2023-03-24T08:27:57;13.8;64.2
78516;SHT31;67815;51.990;5.688;2023-03-24T08:30:27;13.8;65.0
78516;SHT31;67815;51.990;5.688;2023-03-24T08:32:59;13.8;65.6
78516;SHT31;67815;51.990;5.688;2023-03-24T08:35:31;13.8;64.9
78516;SHT31;67815;51.990;5.688;2023-03-24T08:38:01;13.9;64.6
78516;SHT31;67815;51.990;5.688;2023-03-24T08:43:51;14.0;64.1
78516;SHT31;67815;51.990;5.688;2023-03-24T08:46:21;14.0;64.1
78516;SHT31;67815;51.990;5.688;2023-03-24T08:48:51;14.0;64.7
78516;SHT31;67815;51.990;5.688;2023-03-24T08:51:20;14.1;64.2
78516;SHT31;67815;51.990;5.688;2023-03-24T08:53:50;14.1;63.4
78516;SHT31;67815;51.990;5.688;2023-03-24T08:56:21;14.2;63.7
78516;SHT31;67815;51.990;5.688;2023-03-24T09:01:55;14.3;62.0
78516;SHT31;67815;51.990;5.688;2023-03-24T09:04:24;14.3;62.4
78516;SHT31;67815;51.990;5.688;2023-03-24T09:06:54;14.3;62.3
78516;SHT31;67815;51.990;5.688;2023-03-24T09:09:27;14.4;61.8
78516;SHT31;67815;51.990;5.688;2023-03-24T09:11:57;14.4;61.2
78516;SHT31;67815;51.990;5.688;2023-03-24T09:14:27;14.4;62.0
78516;SHT31;67815;51.990;5.688;2023-03-24T09:16:57;14.4;61.2
78516;SHT31;67815;51.990;5.688;2023-03-24T09:19:26;14.5;61.5
78516;SHT31;67815;51.990;5.688;2023-03-24T09:21:56;14.5;61.3
78516;SHT31;67815;51.990;5.688;2023-03-24T09:24:26;14.6;61.0
78516;SHT31;67815;51.990;5.688;2023-03-24T09:26:56;14.6;60.0
78516;SHT31;67815;51.990;5.688;2023-03-24T09:29:25;14.7;60.0
78516;SHT31;67815;51.990;5.688;2023-03-24T09:31:57;14.7;59.7
78516;SHT31;67815;51.990;5.688;2023-03-24T09:34:26;14.7;59.2
78516;SHT31;67815;51.990;5.688;2023-03-24T09:36:57;14.7;59.6
78516;SHT31;67815;51.990;5.688;2023-03-24T09:39:27;14.7;59.6
78516;SHT31;67815;51.990;5.688;2023-03-24T09:41:56;14.7;60.9
78516;SHT31;67815;51.990;5.688;2023-03-24T09:44:32;14.7;60.3
78516;SHT31;67815;51.990;5.688;2023-03-24T09:47:09;14.8;59.8
78516;SHT31;67815;51.990;5.688;2023-03-24T09:49:42;14.8;60.1
78516;SHT31;67815;51.990;5.688;2023-03-24T09:52:20;14.8;59.4
78516;SHT31;67815;51.990;5.688;2023-03-24T09:55:13;14.8;58.7
78516;SHT31;67815;51.990;5.688;2023-03-24T09:57:47;14.8;60.6
78516;SHT31;67815;51.990;5.688;2023-03-24T10:00:21;14.8;61.8
78516;SHT31;67815;51.990;5.688;2023-03-24T10:02:52;14.8;60.8
78516;SHT31;67815;51.990;5.688;2023-03-24T10:05:27;14.9;60.1
78516;SHT31;67815;51.990;5.688;2023-03-24T10:08:02;14.9;59.8
78516;SHT31;67815;51.990;5.688;2023-03-24T10:10:39;15.0;59.2
78516;SHT31;67815;51.990;5.688;2023-03-24T10:13:19;15.0;57.9
78516;SHT31;67815;51.990;5.688;2023-03-24T10:19:00;15.1;58.4
78516;SHT31;67815;51.990;5.688;2023-03-24T10:21:34;15.1;58.6
78516;SHT31;67815;51.990;5.688;2023-03-24T10:24:14;15.1;56.4
78516;SHT31;67815;51.990;5.688;2023-03-24T10:26:51;15.2;55.4
78516;SHT31;67815;51.990;5.688;2023-03-24T10:29:28;15.2;56.5
78516;SHT31;67815;51.990;5.688;2023-03-24T10:32:01;15.2;55.8
78516;SHT31;67815;51.990;5.688;2023-03-24T10:34:33;15.2;55.2
78516;SHT31;67815;51.990;5.688;2023-03-24T10:37:04;15.2;54.8
78516;SHT31;67815;51.990;5.688;2023-03-24T10:39:33;15.2;55.6
78516;SHT31;67815;51.990;5.688;2023-03-24T10:42:23;15.2;54.0
78516;SHT31;67815;51.990;5.688;2023-03-24T10:44:54;15.2;54.8
78516;SHT31;67815;51.990;5.688;2023-03-24T10:47:27;15.2;53.6
78516;SHT31;67815;51.990;5.688;2023-03-24T10:50:01;15.2;54.4
78516;SHT31;67815;51.990;5.688;2023-03-24T10:52:41;15.1;54.7
78516;SHT31;67815;51.990;5.688;2023-03-24T10:55:16;15.1;56.0
78516;SHT31;67815;51.990;5.688;2023-03-24T10:57:49;15.1;56.3
78516;SHT31;67815;51.990;5.688;2023-03-24T11:00:23;15.1;57.6
78516;SHT31;67815;51.990;5.688;2023-03-24T11:02:59;15.1;57.3
78516;SHT31;67815;51.990;5.688;2023-03-24T11:05:33;15.1;58.2
78516;SHT31;67815;51.990;5.688;2023-03-24T11:08:25;15.1;58.9
78516;SHT31;67815;51.990;5.688;2023-03-24T11:10:56;15.1;59.6
78516;SHT31;67815;51.990;5.688;2023-03-24T11:13:31;15.1;60.3
78516;SHT31;67815;51.990;5.688;2023-03-24T11:16:20;15.1;59.4
78516;SHT31;67815;51.990;5.688;2023-03-24T11:19:00;15.0;63.5
78516;SHT31;67815;51.990;5.688;2023-03-24T11:21:31;15.0;64.4
78516;SHT31;67815;51.990;5.688;2023-03-24T11:24:10;15.0;65.2
78516;SHT31;67815;51.990;5.688;2023-03-24T11:26:44;14.9;63.7
78516;SHT31;67815;51.990;5.688;2023-03-24T11:29:18;14.9;62.3
78516;SHT31;67815;51.990;5.688;2023-03-24T11:32:16;14.8;63.9
78516;SHT31;67815;51.990;5.688;2023-03-24T11:35:00;14.7;65.2
78516;SHT31;67815;51.990;5.688;2023-03-24T11:40:54;14.7;64.4
78516;SHT31;67815;51.990;5.688;2023-03-24T11:43:26;14.6;62.2
78516;SHT31;67815;51.990;5.688;2023-03-24T11:46:00;14.6;62.3
78516;SHT31;67815;51.990;5.688;2023-03-24T11:48:38;14.6;63.5
78516;SHT31;67815;51.990;5.688;2023-03-24T11:51:21;14.5;65.0
78516;SHT31;67815;51.990;5.688;2023-03-24T11:53:55;14.5;64.2
78516;SHT31;67815;51.990;5.688;2023-03-24T11:56:33;14.5;64.6
78516;SHT31;67815;51.990;5.688;2023-03-24T11:59:10;14.5;64.7
78516;SHT31;67815;51.990;5.688;2023-03-24T12:01:51;14.4;65.4
78516;SHT31;67815;51.990;5.688;2023-03-24T12:08:18;14.4;66.4
78516;SHT31;67815;51.990;5.688;2023-03-24T12:10:58;14.4;66.6
78516;SHT31;67815;51.990;5.688;2023-03-24T12:13:36;14.3;64.0
78516;SHT31;67815;51.990;5.688;2023-03-24T12:16:19;14.2;64.5
78516;SHT31;67815;51.990;5.688;2023-03-24T12:19:27;14.2;64.4
78516;SHT31;67815;51.990;5.688;2023-03-24T12:22:06;14.1;65.1
78516;SHT31;67815;51.990;5.688;2023-03-24T12:24:54;14.0;65.7
78516;SHT31;67815;51.990;5.688;2023-03-24T12:27:40;14.0;67.2
78516;SHT31;67815;51.990;5.688;2023-03-24T12:30:18;13.9;67.7
78516;SHT31;67815;51.990;5.688;2023-03-24T12:33:00;13.9;68.5
78516;SHT31;67815;51.990;5.688;2023-03-24T12:35:47;13.9;69.1
78516;SHT31;67815;51.990;5.688;2023-03-24T12:38:26;13.9;70.1
78516;SHT31;67815;51.990;5.688;2023-03-24T12:41:19;13.9;68.7
78516;SHT31;67815;51.990;5.688;2023-03-24T12:44:07;13.9;68.7
78516;SHT31;67815;51.990;5.688;2023-03-24T12:46:43;13.9;68.2
78516;SHT31;67815;51.990;5.688;2023-03-24T12:49:25;14.0;69.4
78516;SHT31;67815;51.990;5.688;2023-03-24T12:52:10;14.0;70.2
78516;SHT31;67815;51.990;5.688;2023-03-24T12:54:54;14.1;70.7
78516;SHT31;67815;51.990;5.688;2023-03-24T13:00:48;14.3;70.1
78516;SHT31;67815;51.990;5.688;2023-03-24T13:03:28;14.3;71.0
78516;SHT31;67815;51.990;5.688;2023-03-24T13:06:10;14.4;66.9
78516;SHT31;67815;51.990;5.688;2023-03-24T13:08:51;14.5;68.5
78516;SHT31;67815;51.990;5.688;2023-03-24T13:11:29;14.5;68.6
78516;SHT31;67815;51.990;5.688;2023-03-24T13:14:00;14.6;68.2
78516;SHT31;67815;51.990;5.688;2023-03-24T13:16:36;14.6;67.3
78516;SHT31;67815;51.990;5.688;2023-03-24T13:19:16;14.6;68.2
78516;SHT31;67815;51.990;5.688;2023-03-24T13:21:48;14.6;68.3
78516;SHT31;67815;51.990;5.688;2023-03-24T13:24:19;14.6;68.1
78516;SHT31;67815;51.990;5.688;2023-03-24T13:26:59;14.6;65.7
78516;SHT31;67815;51.990;5.688;2023-03-24T13:29:56;14.6;66.5
78516;SHT31;67815;51.990;5.688;2023-03-24T13:32:33;14.6;64.6
78516;SHT31;67815;51.990;5.688;2023-03-24T13:35:14;14.6;67.6
78516;SHT31;67815;51.990;5.688;2023-03-24T13:37:50;14.6;64.0
78516;SHT31;67815;51.990;5.688;2023-03-24T13:43:49;14.5;65.0
78516;SHT31;67815;51.990;5.688;2023-03-24T13:46:19;14.5;65.4
78516;SHT31;67815;51.990;5.688;2023-03-24T13:48:54;14.5;67.6
78516;SHT31;67815;51.990;5.688;2023-03-24T13:51:29;14.5;65.5
78516;SHT31;67815;51.990;5.688;2023-03-24T13:54:04;14.5;65.0
78516;SHT31;67815;51.990;5.688;2023-03-24T13:56:38;14.5;67.1
78516;SHT31;67815;51.990;5.688;2023-03-24T13:59:25;14.5;68.1
78516;SHT31;67815;51.990;5.688;2023-03-24T14:04:27;14.5;67.7
78516;SHT31;67815;51.990;5.688;2023-03-24T14:06:58;14.5;64.8
78516;SHT31;67815;51.990;5.688;2023-03-24T14:09:41;14.5;67.2
78516;SHT31;67815;51.990;5.688;2023-03-24T14:12:19;14.4;68.8
78516;SHT31;67815;51.990;5.688;2023-03-24T14:15:13;14.4;67.1
78516;SHT31;67815;51.990;5.688;2023-03-24T14:17:45;14.4;67.9
78516;SHT31;67815;51.990;5.688;2023-03-24T14:20:31;14.3;66.9
78516;SHT31;67815;51.990;5.688;2023-03-24T14:23:02;14.3;66.6
78516;SHT31;67815;51.990;5.688;2023-03-24T14:25:33;14.3;65.4
78516;SHT31;67815;51.990;5.688;2023-03-24T14:28:18;14.2;66.9
78516;SHT31;67815;51.990;5.688;2023-03-24T14:30:59;14.2;66.6
78516;SHT31;67815;51.990;5.688;2023-03-24T14:33:30;14.1;66.3
78516;SHT31;67815;51.990;5.688;2023-03-24T14:36:04;14.1;66.1
78516;SHT31;67815;51.990;5.688;2023-03-24T14:38:40;14.1;68.4
78516;SHT31;67815;51.990;5.688;2023-03-24T14:41:15;14.0;69.8
78516;SHT31;67815;51.990;5.688;2023-03-24T14:43:55;14.0;67.1
78516;SHT31;67815;51.990;5.688;2023-03-24T14:46:37;14.0;67.5
78516;SHT31;67815;51.990;5.688;2023-03-24T14:49:16;14.0;68.6
78516;SHT31;67815;51.990;5.688;2023-03-24T14:51:53;14.0;71.2
78516;SHT31;67815;51.990;5.688;2023-03-24T14:54:33;14.0;70.2
78516;SHT31;67815;51.990;5.688;2023-03-24T14:57:05;14.0;68.1
78516;SHT31;67815;51.990;5.688;2023-03-24T14:59:42;14.1;67.6
78516;SHT31;67815;51.990;5.688;2023-03-24T15:02:28;14.1;67.3
78516;SHT31;67815;51.990;5.688;2023-03-24T15:05:20;14.2;70.4
78516;SHT31;67815;51.990;5.688;2023-03-24T15:08:12;14.3;71.2
78516;SHT31;67815;51.990;5.688;2023-03-24T15:10:48;14.3;67.3
78516;SHT31;67815;51.990;5.688;2023-03-24T15:13:29;14.4;69.6
78516;SHT31;67815;51.990;5.688;2023-03-24T15:16:02;14.4;67.5
78516;SHT31;67815;51.990;5.688;2023-03-24T15:18:33;14.5;66.0
78516;SHT31;67815;51.990;5.688;2023-03-24T15:21:15;14.5;68.3
78516;SHT31;67815;51.990;5.688;2023-03-24T15:23:48;14.5;65.4
78516;SHT31;67815;51.990;5.688;2023-03-24T15:29:41;14.6;67.6
78516;SHT31;67815;51.990;5.688;2023-03-24T15:32:17;14.6;63.6
78516;SHT31;67815;51.990;5.688;2023-03-24T15:34:51;14.6;65.5
78516;SHT31;67815;51.990;5.688;2023-03-24T15:37:23;14.6;64.7
78516;SHT31;67815;51.990;5.688;2023-03-24T15:39:54;14.6;65.1
78516;SHT31;67815;51.990;5.688;2023-03-24T15:42:24;14.6;65.2
78516;SHT31;67815;51.990;5.688;2023-03-24T15:45:08;14.6;65.9
78516;SHT31;67815;51.990;5.688;2023-03-24T15:47:39;14.6;64.5
78516;SHT31;67815;51.990;5.688;2023-03-24T15:50:29;14.6;67.0
78516;SHT31;67815;51.990;5.688;2023-03-24T15:53:01;14.6;68.4
78516;SHT31;67815;51.990;5.688;2023-03-24T15:58:54;14.6;68.1
78516;SHT31;67815;51.990;5.688;2023-03-24T16:01:27;14.7;68.9
78516;SHT31;67815;51.990;5.688;2023-03-24T16:04:04;14.7;69.2
78516;SHT31;67815;51.990;5.688;2023-03-24T16:06:35;14.7;69.6
78516;SHT31;67815;51.990;5.688;2023-03-24T16:09:10;14.7;70.0
78516;SHT31;67815;51.990;5.688;2023-03-24T16:11:41;14.7;68.8
78516;SHT31;67815;51.990;5.688;2023-03-24T16:14:20;14.7;68.8
78516;SHT31;67815;51.990;5.688;2023-03-24T16:16:54;14.7;69.5
78516;SHT31;67815;51.990;5.688;2023-03-24T16:19:25;14.7;70.8
78516;SHT31;67815;51.990;5.688;2023-03-24T16:21:55;14.7;69.3
78516;SHT31;67815;51.990;5.688;2023-03-24T16:24:25;14.7;70.3
78516;SHT31;67815;51.990;5.688;2023-03-24T16:26:54;14.8;70.1
78516;SHT31;67815;51.990;5.688;2023-03-24T16:29:24;14.8;69.6
78516;SHT31;67815;51.990;5.688;2023-03-24T16:32:14;14.7;69.6
78516;SHT31;67815;51.990;5.688;2023-03-24T16:34:44;14.7;68.4
78516;SHT31;67815;51.990;5.688;2023-03-24T16:40:37;14.7;68.7
78516;SHT31;67815;51.990;5.688;2023-03-24T16:43:10;14.7;69.1
78516;SHT31;67815;51.990;5.688;2023-03-24T16:48:46;14.7;68.7
78516;SHT31;67815;51.990;5.688;2023-03-24T16:51:17;14.6;69.1
78516;SHT31;67815;51.990;5.688;2023-03-24T16:53:47;14.6;68.4
78516;SHT31;67815;51.990;5.688;2023-03-24T16:59:38;14.6;68.9
78516;SHT31;67815;51.990;5.688;2023-03-24T17:02:09;14.6;69.2
78516;SHT31;67815;51.990;5.688;2023-03-24T17:04:41;14.6;69.2
78516;SHT31;67815;51.990;5.688;2023-03-24T17:07:13;14.6;69.2
78516;SHT31;67815;51.990;5.688;2023-03-24T17:09:43;14.6;68.9
78516;SHT31;67815;51.990;5.688;2023-03-24T17:12:14;14.6;69.2
78516;SHT31;67815;51.990;5.688;2023-03-24T17:14:44;14.6;69.5
78516;SHT31;67815;51.990;5.688;2023-03-24T17:17:13;14.6;69.1
78516;SHT31;67815;51.990;5.688;2023-03-24T17:19:43;14.6;68.8
78516;SHT31;67815;51.990;5.688;2023-03-24T17:22:14;14.6;69.0
78516;SHT31;67815;51.990;5.688;2023-03-24T17:24:45;14.5;68.7
78516;SHT31;67815;51.990;5.688;2023-03-24T17:27:17;14.5;67.8
78516;SHT31;67815;51.990;5.688;2023-03-24T17:29:47;14.5;68.4
78516;SHT31;67815;51.990;5.688;2023-03-24T17:32:17;14.5;68.3
78516;SHT31;67815;51.990;5.688;2023-03-24T17:34:47;14.5;69.2
78516;SHT31;67815;51.990;5.688;2023-03-24T17:37:17;14.5;69.1
78516;SHT31;67815;51.990;5.688;2023-03-24T17:39:47;14.5;68.5
78516;SHT31;67815;51.990;5.688;2023-03-24T17:42:16;14.5;68.7
78516;SHT31;67815;51.990;5.688;2023-03-24T17:44:47;14.5;66.2
78516;SHT31;67815;51.990;5.688;2023-03-24T17:47:17;14.5;68.6
78516;SHT31;67815;51.990;5.688;2023-03-24T17:49:47;14.5;68.3
78516;SHT31;67815;51.990;5.688;2023-03-24T17:52:17;14.4;67.9
78516;SHT31;67815;51.990;5.688;2023-03-24T17:54:47;14.4;68.3
78516;SHT31;67815;51.990;5.688;2023-03-24T17:57:16;14.4;67.9
78516;SHT31;67815;51.990;5.688;2023-03-24T17:59:46;14.4;68.1
78516;SHT31;67815;51.990;5.688;2023-03-24T18:02:15;14.4;67.4
78516;SHT31;67815;51.990;5.688;2023-03-24T18:04:45;14.4;68.1
78516;SHT31;67815;51.990;5.688;2023-03-24T18:07:16;14.4;68.0
78516;SHT31;67815;51.990;5.688;2023-03-24T18:09:46;14.4;67.9